createdAt,value
2022-08-24T00:04:04.974Z,86.90
2022-08-24T00:09:06.804Z,87.43
2022-08-24T00:14:08.939Z,87.20
2022-08-24T00:19:12.192Z,87.34
2022-08-24T00:24:14.218Z,87.33
2022-08-24T00:29:18.167Z,87.33
2022-08-24T00:34:21.883Z,87.31
2022-08-24T00:39:23.843Z,87.43
2022-08-24T00:44:26.053Z,87.74
2022-08-24T00:49:35.946Z,87.91
2022-08-24T00:54:46.101Z,88.55
2022-08-24T00:59:52.624Z,88.70
2022-08-24T01:04:59.054Z,88.54
2022-08-24T01:10:05.568Z,89.16
2022-08-24T01:15:10.690Z,89.26
2022-08-24T01:20:14.773Z,89.26
2022-08-24T01:25:18.304Z,89.23
2022-08-24T01:30:29.312Z,89.42
2022-08-24T01:35:39.468Z,89.17
2022-08-24T01:40:46.883Z,89.40
2022-08-24T01:45:48.980Z,90.25
2022-08-24T01:50:51.258Z,90.04
2022-08-24T01:55:54.657Z,89.39
2022-08-24T02:00:56.830Z,90.02
2022-08-24T02:05:58.878Z,90.18
2022-08-24T02:11:02.564Z,90.14
2022-08-24T02:16:05.300Z,90.34
2022-08-24T02:21:07.507Z,90.36
2022-08-24T02:26:12.659Z,90.09
2022-08-24T02:31:15.317Z,90.32
2022-08-24T02:36:25.707Z,90.39
2022-08-24T02:41:30.711Z,90.10
2022-08-24T02:46:33.336Z,90.45
2022-08-24T02:51:41.582Z,90.12
2022-08-24T02:56:48.895Z,90.32
2022-08-24T03:01:51.824Z,90.33
2022-08-24T03:06:54.221Z,90.72
2022-08-24T03:11:57.719Z,90.75
2022-08-24T03:16:59.755Z,90.89
2022-08-24T03:22:02.005Z,90.86
2022-08-24T03:27:05.758Z,90.85
2022-08-24T03:32:08.092Z,91.01
2022-08-24T03:37:10.134Z,91.58
2022-08-24T03:42:13.879Z,92.10
2022-08-24T03:47:16.210Z,91.55
2022-08-24T03:52:18.432Z,91.49
2022-08-24T03:57:21.993Z,91.05
2022-08-24T04:02:24.439Z,89.85
2022-08-24T04:07:26.257Z,89.75
2022-08-24T04:12:29.509Z,90.78
2022-08-24T04:17:31.520Z,91.21
2022-08-24T04:22:33.302Z,92.28
2022-08-24T04:27:37.047Z,93.23
2022-08-24T04:32:39.111Z,93.49
2022-08-24T04:37:41.100Z,94.16
2022-08-24T04:42:44.873Z,94.26
2022-08-24T04:47:47.103Z,94.38
2022-08-24T04:52:49.197Z,94.74
2022-08-24T04:57:52.671Z,94.97
2022-08-24T05:02:54.368Z,95.25
2022-08-24T05:07:56.695Z,95.36
2022-08-24T05:13:00.252Z,95.45
2022-08-24T05:18:02.853Z,95.58
2022-08-24T05:23:04.828Z,95.10
2022-08-24T05:28:07.951Z,94.77
2022-08-24T05:33:09.787Z,94.86
2022-08-24T05:38:11.510Z,94.57
2022-08-24T05:43:14.792Z,92.98
2022-08-24T05:48:16.833Z,93.56
2022-08-24T05:53:19.069Z,92.66
2022-08-24T05:58:29.244Z,93.56
2022-08-24T06:03:33.596Z,92.74
2022-08-24T06:08:40.640Z,92.67
2022-08-24T06:13:44.387Z,92.82
2022-08-24T06:18:46.441Z,91.35
2022-08-24T06:23:49.521Z,90.12
2022-08-24T06:28:53.435Z,88.52
2022-08-24T06:33:55.626Z,87.05
2022-08-24T06:38:58.037Z,87.56
2022-08-24T06:44:02.530Z,88.16
2022-08-24T06:49:05.089Z,87.57
2022-08-24T06:54:07.214Z,87.80
2022-08-24T06:59:10.256Z,87.93
2022-08-24T07:04:11.986Z,86.63
2022-08-24T07:09:14.337Z,84.96
2022-08-24T07:14:17.961Z,83.18
2022-08-24T07:19:19.982Z,85.84
2022-08-24T07:24:22.005Z,86.08
2022-08-24T07:29:46.360Z,85.75
2022-08-24T07:34:47.794Z,83.45
2022-08-24T07:39:49.584Z,80.55
2022-08-24T07:44:53.406Z,79.28
2022-08-24T07:49:55.603Z,80.10
2022-08-24T07:54:57.485Z,81.47
2022-08-24T08:00:01.260Z,81.35
2022-08-24T08:05:03.381Z,80.29
2022-08-24T08:10:07.143Z,79.59
2022-08-24T08:15:11.285Z,78.77
2022-08-24T08:20:13.439Z,79.18
2022-08-24T08:25:21.009Z,77.00
2022-08-24T08:30:24.097Z,74.41
2022-08-24T08:35:26.173Z,76.99
2022-08-24T08:40:41.332Z,76.77
2022-08-24T08:46:06.802Z,75.72
2022-08-24T08:51:48.712Z,73.53
2022-08-24T08:57:05.421Z,69.89
2022-08-24T09:02:25.685Z,70.00
2022-08-24T09:07:42.286Z,69.63
2022-08-24T09:12:58.442Z,69.97
2022-08-24T09:18:24.293Z,67.79
2022-08-24T09:23:36.518Z,65.67
2022-08-24T09:28:44.063Z,65.46
2022-08-24T09:34:06.200Z,62.62
2022-08-24T09:39:16.580Z,62.29
2022-08-24T09:44:39.518Z,64.26
2022-08-24T09:50:29.611Z,66.89
2022-08-24T09:55:57.004Z,64.26
2022-08-24T10:01:07.689Z,63.60
2022-08-24T10:06:24.509Z,65.62
2022-08-24T10:11:36.450Z,65.48
2022-08-24T10:16:49.136Z,63.48
2022-08-24T10:22:02.501Z,61.02
2022-08-24T10:27:16.259Z,49.17
2022-08-24T10:32:34.242Z,51.17
2022-08-24T10:37:58.700Z,50.11
2022-08-24T10:43:40.157Z,49.15
2022-08-24T10:49:15.050Z,58.67
2022-08-24T10:54:23.998Z,60.10
2022-08-24T10:59:31.847Z,60.61
2022-08-24T11:04:34.632Z,56.64
2022-08-24T11:09:47.958Z,53.65
2022-08-24T11:14:50.106Z,54.93
2022-08-24T11:19:52.797Z,59.39
2022-08-24T11:24:59.458Z,56.59
2022-08-24T11:30:06.678Z,54.76
2022-08-24T11:35:17.932Z,53.93
2022-08-24T11:40:24.865Z,51.76
2022-08-24T11:45:35.245Z,49.00
2022-08-24T11:50:44.241Z,53.11
2022-08-24T11:55:57.258Z,55.03
2022-08-24T12:01:08.582Z,55.15
2022-08-24T12:06:22.833Z,58.09
2022-08-24T12:17:12.331Z,55.17
2022-08-24T12:22:19.513Z,52.71
2022-08-24T12:27:26.415Z,51.14
2022-08-24T12:32:32.717Z,49.22
2022-08-24T12:37:38.454Z,47.39
2022-08-24T12:42:51.331Z,46.08
2022-08-24T12:47:59.501Z,46.03
2022-08-24T12:53:37.752Z,49.25
2022-08-24T12:58:55.237Z,50.81
2022-08-24T13:04:12.885Z,52.16
2022-08-24T13:09:27.141Z,50.27
2022-08-24T13:14:31.628Z,48.69
2022-08-24T13:19:36.909Z,45.31
2022-08-24T13:24:43.637Z,45.29
2022-08-24T13:29:52.412Z,46.11
2022-08-24T13:34:57.483Z,45.71
2022-08-24T13:40:06.519Z,46.12
2022-08-24T13:45:35.819Z,46.56
2022-08-24T13:50:48.667Z,47.48
2022-08-24T13:55:52.870Z,49.09
2022-08-24T14:01:03.273Z,48.65
2022-08-24T14:06:21.311Z,46.56
2022-08-24T14:11:46.705Z,45.20
2022-08-24T14:17:06.929Z,44.66
2022-08-24T14:22:32.227Z,43.98
2022-08-24T14:27:39.137Z,43.76
2022-08-24T14:32:47.345Z,41.03
2022-08-24T14:38:01.403Z,43.12
2022-08-24T14:43:21.942Z,43.78
2022-08-24T14:48:34.130Z,44.01
2022-08-24T14:53:51.010Z,44.28
2022-08-24T14:59:03.457Z,44.26
2022-08-24T15:04:42.879Z,43.52
2022-08-24T15:09:45.596Z,44.99
2022-08-24T15:14:52.107Z,44.85
2022-08-24T15:20:03.359Z,44.66
2022-08-24T15:25:13.447Z,44.85
2022-08-24T15:30:22.296Z,41.70
2022-08-24T15:35:30.896Z,42.05
2022-08-24T15:40:32.667Z,42.93
2022-08-24T15:45:41.077Z,43.71
2022-08-24T15:50:47.274Z,43.11
2022-08-24T15:55:49.158Z,44.09
2022-08-24T16:01:00.860Z,43.18
2022-08-24T16:06:23.035Z,45.06
2022-08-24T16:11:30.782Z,44.87
2022-08-24T16:16:37.725Z,45.11
2022-08-24T16:21:50.887Z,47.00
2022-08-24T16:27:01.641Z,46.34
2022-08-24T16:32:10.108Z,45.86
2022-08-24T16:37:13.826Z,47.89
2022-08-24T16:42:21.737Z,48.71
2022-08-24T16:47:25.746Z,49.29
2022-08-24T16:52:29.317Z,49.62
2022-08-24T16:57:33.259Z,49.98
2022-08-24T17:02:35.346Z,49.50
2022-08-24T17:07:38.859Z,49.30
2022-08-24T17:12:40.734Z,50.36
2022-08-24T17:17:48.057Z,50.61
2022-08-24T17:22:51.156Z,51.71
2022-08-24T17:27:54.446Z,51.89
2022-08-24T17:32:56.213Z,52.54
2022-08-24T17:37:59.577Z,53.63
2022-08-24T17:43:01.665Z,55.10
2022-08-24T17:48:03.829Z,56.53
2022-08-24T17:53:07.090Z,57.25
2022-08-24T17:58:09.137Z,57.15
2022-08-24T18:03:16.359Z,59.22
2022-08-24T18:08:20.007Z,59.24
2022-08-24T18:13:23.646Z,61.61
2022-08-24T18:18:25.565Z,61.67
2022-08-24T18:23:28.677Z,62.74
2022-08-24T18:33:32.645Z,64.39
2022-08-24T18:38:38.615Z,64.10
2022-08-24T18:43:40.466Z,64.80
2022-08-24T18:48:42.291Z,64.56
2022-08-24T18:53:45.689Z,65.32
2022-08-24T18:58:47.513Z,65.23
2022-08-24T19:03:49.487Z,65.25
2022-08-24T19:08:52.799Z,65.41
2022-08-24T19:13:54.741Z,66.49
2022-08-24T19:19:02.196Z,66.98
2022-08-24T19:24:05.810Z,67.94
2022-08-24T19:29:07.598Z,67.42
2022-08-24T19:34:11.640Z,67.69
2022-08-24T19:39:16.832Z,67.65
2022-08-24T19:44:27.719Z,68.20
2022-08-24T19:49:29.958Z,67.87
2022-08-24T19:54:36.104Z,68.39
2022-08-24T19:59:41.123Z,68.25
2022-08-24T20:04:43.755Z,68.94
2022-08-24T20:09:47.775Z,69.48
2022-08-24T20:14:49.595Z,70.09
2022-08-24T20:19:52.007Z,69.92
2022-08-24T20:24:55.065Z,70.64
2022-08-24T20:29:57.059Z,71.51
2022-08-24T20:34:59.119Z,71.92
2022-08-24T20:40:03.882Z,72.52
2022-08-24T20:45:07.367Z,72.59
2022-08-24T20:50:09.886Z,72.94
2022-08-24T20:55:14.063Z,72.95
2022-08-24T21:00:18.587Z,73.42
2022-08-24T21:05:20.718Z,73.89
2022-08-24T21:10:26.570Z,74.20
2022-08-24T21:15:29.134Z,75.11
2022-08-24T21:20:30.972Z,75.25
2022-08-24T21:25:34.089Z,75.37
2022-08-24T21:30:35.804Z,76.27
2022-08-24T21:35:38.348Z,76.49
2022-08-24T21:40:41.511Z,77.07
2022-08-24T21:45:43.628Z,77.17
2022-08-24T21:50:47.442Z,77.66
2022-08-24T21:55:53.436Z,78.16
2022-08-24T22:00:59.002Z,78.65
2022-08-24T22:06:01.780Z,79.23
2022-08-24T22:11:05.722Z,79.57
2022-08-24T22:16:08.102Z,80.11
2022-08-24T22:21:13.500Z,80.70
2022-08-24T22:26:17.081Z,81.42
2022-08-24T22:31:22.372Z,81.14
2022-08-24T22:36:26.220Z,82.04
2022-08-24T22:41:30.435Z,82.03
2022-08-24T22:46:34.639Z,81.98
2022-08-24T22:51:37.437Z,82.62
2022-08-24T22:56:43.848Z,82.92
2022-08-24T23:01:47.940Z,82.79
2022-08-24T23:06:51.383Z,83.33
2022-08-24T23:11:55.769Z,83.12
2022-08-24T23:17:00.242Z,83.56
2022-08-24T23:22:02.470Z,83.49
2022-08-24T23:27:07.299Z,84.11
2022-08-24T23:32:09.353Z,83.39
2022-08-24T23:37:12.060Z,83.81
2022-08-24T23:42:15.808Z,84.13
2022-08-24T23:47:17.897Z,85.07
2022-08-24T23:52:28.330Z,84.63
2022-08-24T23:57:34.339Z,85.25
